createdAt,value
2023-03-02T00:02:23.290Z,100.00
2023-03-02T00:04:55.021Z,100.00
2023-03-02T00:07:26.827Z,100.00
2023-03-02T00:09:56.129Z,100.00
2023-03-02T00:12:23.579Z,100.00
2023-03-02T00:14:50.786Z,100.00
2023-03-02T00:17:18.213Z,100.00
2023-03-02T00:19:45.423Z,100.00
2023-03-02T00:22:12.901Z,100.00
2023-03-02T00:24:40.457Z,100.00
2023-03-02T00:27:07.986Z,100.00
2023-03-02T00:29:35.603Z,100.00
2023-03-02T00:32:06.656Z,100.00
2023-03-02T00:34:35.233Z,100.00
2023-03-02T00:37:02.832Z,100.00
2023-03-02T00:39:30.445Z,100.00
2023-03-02T00:41:57.733Z,100.00
2023-03-02T00:44:24.981Z,100.00
2023-03-02T00:46:52.291Z,100.00
2023-03-02T00:49:19.586Z,100.00
2023-03-02T00:51:49.093Z,100.00
2023-03-02T00:54:16.516Z,100.00
2023-03-02T00:56:44.421Z,100.00
2023-03-02T00:59:27.797Z,100.00
2023-03-02T01:01:58.878Z,100.00
2023-03-02T01:04:31.358Z,100.00
2023-03-02T01:07:05.351Z,100.00
2023-03-02T01:09:32.914Z,100.00
2023-03-02T01:12:03.175Z,100.00
2023-03-02T01:14:31.292Z,100.00
2023-03-02T01:16:59.112Z,100.00
2023-03-02T01:19:26.746Z,100.00
2023-03-02T01:21:54.096Z,100.00
2023-03-02T01:24:21.438Z,100.00
2023-03-02T01:26:48.697Z,100.00
2023-03-02T01:29:16.057Z,100.00
2023-03-02T01:31:43.356Z,100.00
2023-03-02T01:34:10.608Z,100.00
2023-03-02T01:36:38.321Z,100.00
2023-03-02T01:39:05.522Z,100.00
2023-03-02T01:41:32.800Z,100.00
2023-03-02T01:44:00.061Z,100.00
2023-03-02T01:46:28.637Z,100.00
2023-03-02T01:49:07.458Z,100.00
2023-03-02T01:51:46.136Z,100.00
2023-03-02T01:54:17.291Z,100.00
2023-03-02T01:56:44.710Z,100.00
2023-03-02T01:59:14.275Z,100.00
2023-03-02T02:01:43.102Z,100.00
2023-03-02T02:04:11.062Z,100.00
2023-03-02T02:06:43.324Z,100.00
2023-03-02T02:09:13.346Z,100.00
2023-03-02T02:11:42.731Z,100.00
2023-03-02T02:14:10.390Z,100.00
2023-03-02T02:16:39.382Z,100.00
2023-03-02T02:19:29.286Z,100.00
2023-03-02T02:21:56.504Z,100.00
2023-03-02T02:24:52.651Z,100.00
2023-03-02T02:27:20.946Z,100.00
2023-03-02T02:29:49.348Z,100.00
2023-03-02T02:32:21.994Z,100.00
2023-03-02T02:34:56.299Z,100.00
2023-03-02T02:37:47.280Z,100.00
2023-03-02T02:40:17.565Z,100.00
2023-03-02T02:42:46.394Z,100.00
2023-03-02T02:45:23.886Z,100.00
2023-03-02T02:47:51.104Z,100.00
2023-03-02T02:50:24.307Z,100.00
2023-03-02T02:52:57.910Z,100.00
2023-03-02T02:55:26.374Z,100.00
2023-03-02T02:57:56.648Z,100.00
2023-03-02T03:00:24.726Z,100.00
2023-03-02T03:02:54.654Z,100.00
2023-03-02T03:05:21.941Z,100.00
2023-03-02T03:07:50.092Z,100.00
2023-03-02T03:10:23.818Z,100.00
2023-03-02T03:12:52.121Z,100.00
2023-03-02T03:15:19.653Z,100.00
2023-03-02T03:17:57.214Z,100.00
2023-03-02T03:20:24.701Z,100.00
2023-03-02T03:22:55.147Z,100.00
2023-03-02T03:25:26.531Z,100.00
2023-03-02T03:27:53.930Z,100.00
2023-03-02T03:30:22.256Z,100.00
2023-03-02T03:32:49.788Z,100.00
2023-03-02T03:35:18.465Z,100.00
2023-03-02T03:37:45.952Z,100.00
2023-03-02T03:40:16.180Z,100.00
2023-03-02T03:42:45.283Z,100.00
2023-03-02T03:45:12.619Z,100.00
2023-03-02T03:47:41.073Z,100.00
2023-03-02T03:50:08.913Z,100.00
2023-03-02T03:52:36.383Z,100.00
2023-03-02T03:55:04.007Z,100.00
2023-03-02T03:57:31.351Z,100.00
2023-03-02T03:59:58.744Z,100.00
2023-03-02T04:02:25.967Z,100.00
2023-03-02T04:04:55.086Z,100.00
2023-03-02T04:07:22.868Z,100.00
2023-03-02T04:10:03.642Z,100.00
2023-03-02T04:12:31.946Z,100.00
2023-03-02T04:14:59.685Z,100.00
2023-03-02T04:17:27.514Z,100.00
2023-03-02T04:20:00.504Z,100.00
2023-03-02T04:22:28.229Z,100.00
2023-03-02T04:24:55.431Z,100.00
2023-03-02T04:27:22.722Z,100.00
2023-03-02T04:29:53.164Z,100.00
2023-03-02T04:32:20.616Z,100.00
2023-03-02T04:34:47.997Z,100.00
2023-03-02T04:37:16.019Z,100.00
2023-03-02T04:39:47.350Z,100.00
2023-03-02T04:42:20.972Z,100.00
2023-03-02T04:44:48.599Z,100.00
2023-03-02T04:47:15.920Z,100.00
2023-03-02T04:49:43.568Z,100.00
2023-03-02T04:52:13.399Z,100.00
2023-03-02T04:54:41.275Z,100.00
2023-03-02T04:57:08.696Z,100.00
2023-03-02T04:59:35.981Z,100.00
2023-03-02T05:02:03.382Z,100.00
2023-03-02T05:04:33.066Z,100.00
2023-03-02T05:07:01.081Z,100.00
2023-03-02T05:09:31.587Z,100.00
2023-03-02T05:12:00.292Z,100.00
2023-03-02T05:14:27.671Z,100.00
2023-03-02T05:16:59.482Z,100.00
2023-03-02T05:19:26.924Z,100.00
2023-03-02T05:21:54.161Z,100.00
2023-03-02T05:24:21.430Z,100.00
2023-03-02T05:26:52.372Z,100.00
2023-03-02T05:29:19.803Z,100.00
2023-03-02T05:31:48.235Z,100.00
2023-03-02T05:34:16.456Z,100.00
2023-03-02T05:36:45.088Z,100.00
2023-03-02T05:39:13.475Z,100.00
2023-03-02T05:41:41.286Z,100.00
2023-03-02T05:44:09.708Z,100.00
2023-03-02T05:46:37.694Z,98.54
2023-03-02T05:49:05.202Z,97.49
2023-03-02T05:51:33.277Z,97.42
2023-03-02T05:54:00.541Z,96.74
2023-03-02T05:56:27.814Z,95.48
2023-03-02T05:58:55.927Z,94.48
2023-03-02T06:01:23.160Z,92.67
2023-03-02T06:03:50.441Z,91.86
2023-03-02T06:06:17.725Z,89.68
2023-03-02T06:08:47.205Z,89.80
2023-03-02T06:11:14.709Z,87.79
2023-03-02T06:13:42.380Z,87.46
2023-03-02T06:16:10.785Z,85.87
2023-03-02T06:18:41.279Z,83.24
2023-03-02T06:21:09.946Z,81.49
2023-03-02T06:23:37.953Z,81.43
2023-03-02T06:26:11.780Z,81.85
2023-03-02T06:28:51.487Z,80.95
2023-03-02T06:31:20.752Z,77.22
2023-03-02T06:33:48.597Z,75.46
2023-03-02T06:36:17.103Z,76.43
2023-03-02T06:38:44.529Z,70.66
2023-03-02T06:41:11.915Z,72.23
2023-03-02T06:43:39.464Z,69.71
2023-03-02T06:46:07.177Z,68.57
2023-03-02T06:48:35.130Z,64.05
2023-03-02T06:51:02.824Z,60.39
2023-03-02T06:53:31.761Z,60.61
2023-03-02T06:55:59.389Z,60.39
2023-03-02T06:58:27.583Z,55.42
2023-03-02T07:00:54.944Z,55.76
2023-03-02T07:03:22.554Z,53.90
2023-03-02T07:05:51.853Z,53.40
2023-03-02T07:08:22.283Z,54.18
2023-03-02T07:10:50.117Z,52.55
2023-03-02T07:13:17.673Z,51.51
2023-03-02T07:15:45.069Z,51.11
2023-03-02T07:18:12.833Z,51.10
2023-03-02T07:20:40.058Z,50.78
2023-03-02T07:23:09.714Z,51.14
2023-03-02T07:25:38.075Z,49.87
2023-03-02T07:28:05.390Z,47.72
2023-03-02T07:30:32.851Z,44.07
2023-03-02T07:33:00.164Z,40.31
2023-03-02T07:35:28.846Z,37.65
2023-03-02T07:37:56.096Z,36.44
2023-03-02T07:40:23.342Z,36.42
2023-03-02T07:42:50.852Z,35.14
2023-03-02T07:45:24.873Z,33.52
2023-03-02T07:47:53.513Z,33.54
2023-03-02T07:50:20.807Z,33.38
2023-03-02T07:52:50.053Z,31.42
2023-03-02T07:55:17.380Z,30.97
2023-03-02T07:57:45.343Z,31.37
2023-03-02T08:00:13.240Z,32.36
2023-03-02T08:02:41.694Z,33.78
2023-03-02T08:05:10.811Z,35.04
2023-03-02T08:07:40.729Z,35.07
2023-03-02T08:10:08.941Z,35.24
2023-03-02T08:12:36.229Z,34.51
2023-03-02T08:15:06.977Z,34.00
2023-03-02T08:17:35.704Z,33.56
2023-03-02T08:20:04.631Z,31.73
2023-03-02T08:22:32.715Z,31.54
2023-03-02T08:25:02.269Z,31.73
2023-03-02T08:27:29.720Z,31.08
2023-03-02T08:29:56.995Z,30.74
2023-03-02T08:32:24.451Z,30.89
2023-03-02T08:34:52.043Z,31.22
2023-03-02T08:37:19.480Z,31.16
2023-03-02T08:39:47.262Z,30.90
2023-03-02T08:42:16.338Z,30.31
2023-03-02T08:44:43.870Z,30.08
2023-03-02T08:47:11.346Z,29.55
2023-03-02T08:49:39.972Z,30.35
2023-03-02T08:52:07.310Z,28.77
2023-03-02T08:54:34.738Z,28.60
2023-03-02T08:57:02.505Z,29.08
2023-03-02T08:59:29.779Z,29.68
2023-03-02T09:01:57.046Z,30.19
2023-03-02T09:04:25.294Z,29.72
2023-03-02T09:06:53.063Z,28.96
2023-03-02T09:09:20.268Z,28.25
2023-03-02T09:11:49.228Z,27.03
2023-03-02T09:14:16.867Z,27.67
2023-03-02T09:16:45.402Z,27.66
2023-03-02T09:19:13.093Z,29.53
2023-03-02T09:21:41.805Z,29.25
2023-03-02T09:24:09.086Z,29.07
2023-03-02T09:26:37.065Z,29.53
2023-03-02T09:29:04.335Z,29.10
2023-03-02T09:31:34.295Z,28.67
2023-03-02T09:34:01.733Z,28.65
2023-03-02T09:36:32.655Z,28.50
2023-03-02T09:39:00.018Z,29.22
2023-03-02T09:41:53.389Z,29.63
2023-03-02T09:44:29.478Z,28.90
2023-03-02T09:47:00.863Z,28.91
2023-03-02T09:49:37.307Z,28.97
2023-03-02T09:52:19.539Z,29.44
2023-03-02T09:54:46.835Z,31.35
2023-03-02T09:57:25.334Z,31.33
2023-03-02T10:00:23.807Z,32.11
2023-03-02T10:02:54.172Z,32.98
2023-03-02T10:05:28.639Z,32.00
2023-03-02T10:07:57.835Z,30.73
2023-03-02T10:10:45.438Z,29.75
2023-03-02T10:13:23.309Z,29.51
2023-03-02T10:16:09.387Z,29.38
2023-03-02T10:18:41.823Z,27.83
2023-03-02T10:21:09.539Z,27.92
2023-03-02T10:23:43.275Z,27.55
2023-03-02T10:26:36.555Z,28.28
2023-03-02T10:29:36.364Z,29.63
2023-03-02T10:32:25.603Z,30.51
2023-03-02T10:34:53.599Z,30.39
2023-03-02T10:37:25.589Z,30.66
2023-03-02T10:39:57.139Z,31.03
2023-03-02T10:42:30.149Z,31.38
2023-03-02T10:45:03.257Z,30.21
2023-03-02T10:47:30.868Z,29.55
2023-03-02T10:49:58.320Z,29.86
2023-03-02T10:52:27.363Z,30.56
2023-03-02T10:55:05.186Z,30.32
2023-03-02T10:57:45.750Z,28.67
2023-03-02T11:00:26.284Z,28.29
2023-03-02T11:02:54.634Z,28.63
2023-03-02T11:05:44.715Z,28.80
2023-03-02T11:08:17.363Z,28.00
2023-03-02T11:11:01.007Z,29.09
2023-03-02T11:13:36.254Z,30.46
2023-03-02T11:16:18.957Z,31.62
2023-03-02T11:19:05.953Z,31.16
2023-03-02T11:21:58.178Z,30.70
2023-03-02T11:24:47.114Z,30.42
2023-03-02T11:27:31.009Z,30.83
2023-03-02T11:30:04.425Z,32.94
2023-03-02T11:32:53.014Z,33.92
2023-03-02T11:35:42.766Z,32.92
2023-03-02T11:38:29.459Z,33.25
2023-03-02T11:41:30.005Z,35.39
2023-03-02T11:44:00.166Z,36.54
2023-03-02T11:46:31.147Z,36.48
2023-03-02T11:49:04.384Z,35.36
2023-03-02T11:51:44.656Z,33.88
2023-03-02T11:54:38.724Z,33.06
2023-03-02T11:57:06.030Z,33.79
2023-03-02T11:59:34.109Z,34.95
2023-03-02T12:02:01.514Z,34.76
2023-03-02T12:04:34.200Z,35.09
2023-03-02T12:07:23.916Z,34.92
2023-03-02T12:10:07.300Z,33.44
2023-03-02T12:12:35.903Z,33.53
2023-03-02T12:15:35.460Z,33.58
2023-03-02T12:18:15.307Z,34.00
2023-03-02T12:20:43.121Z,34.35
2023-03-02T12:23:21.969Z,34.98
2023-03-02T12:25:51.755Z,34.21
2023-03-02T12:29:07.492Z,35.48
2023-03-02T12:31:52.577Z,36.49
2023-03-02T12:34:24.126Z,36.48
2023-03-02T12:37:18.464Z,37.19
2023-03-02T12:39:54.554Z,37.52
2023-03-02T12:42:40.112Z,37.17
2023-03-02T12:45:52.557Z,38.25
2023-03-02T12:48:27.698Z,38.83
2023-03-02T12:51:00.527Z,38.59
2023-03-02T12:53:28.193Z,39.26
2023-03-02T12:55:57.060Z,37.95
2023-03-02T12:58:27.783Z,37.72
2023-03-02T13:00:59.570Z,37.21
2023-03-02T13:03:28.474Z,37.64
2023-03-02T13:06:03.620Z,38.17
2023-03-02T13:08:31.956Z,37.75
2023-03-02T13:11:02.874Z,37.99
2023-03-02T13:13:41.875Z,37.55
2023-03-02T13:16:24.048Z,37.24
2023-03-02T13:19:01.869Z,37.05
2023-03-02T13:21:37.675Z,36.91
2023-03-02T13:24:26.636Z,38.67
2023-03-02T13:27:04.586Z,38.73
2023-03-02T13:29:32.362Z,38.75
2023-03-02T13:32:20.701Z,39.43
2023-03-02T13:34:49.992Z,39.51
2023-03-02T13:37:34.533Z,40.10
2023-03-02T13:40:02.960Z,39.40
2023-03-02T13:42:40.493Z,38.91
2023-03-02T13:45:27.448Z,39.89
2023-03-02T13:47:55.984Z,40.46
2023-03-02T13:50:24.460Z,40.31
2023-03-02T13:52:52.441Z,40.84
2023-03-02T13:55:20.368Z,40.69
2023-03-02T13:57:49.922Z,41.06
2023-03-02T14:00:38.861Z,41.63
2023-03-02T14:03:31.088Z,42.58
2023-03-02T14:06:00.148Z,42.61
2023-03-02T14:08:27.647Z,43.14
2023-03-02T14:10:59.928Z,43.06
2023-03-02T14:13:51.229Z,43.50
2023-03-02T14:16:18.788Z,43.88
2023-03-02T14:18:48.132Z,43.86
2023-03-02T14:21:17.221Z,43.25
2023-03-02T14:23:44.660Z,43.85
2023-03-02T14:26:26.214Z,42.93
2023-03-02T14:29:04.588Z,42.63
2023-03-02T14:31:32.823Z,41.60
2023-03-02T14:34:00.411Z,40.78
2023-03-02T14:36:30.173Z,40.14
2023-03-02T14:38:57.735Z,39.96
2023-03-02T14:41:25.236Z,40.92
2023-03-02T14:43:56.008Z,41.32
2023-03-02T14:46:27.274Z,41.76
2023-03-02T14:48:54.598Z,41.29
2023-03-02T14:51:26.122Z,40.83
2023-03-02T14:53:54.317Z,40.86
2023-03-02T14:56:22.977Z,41.89
2023-03-02T14:58:52.370Z,42.91
2023-03-02T15:01:20.049Z,43.20
2023-03-02T15:03:47.586Z,43.71
2023-03-02T15:06:29.367Z,44.14
2023-03-02T15:08:58.635Z,45.68
2023-03-02T15:11:26.642Z,46.09
2023-03-02T15:13:57.885Z,46.70
2023-03-02T15:16:25.139Z,47.17
2023-03-02T15:18:52.719Z,48.31
2023-03-02T15:21:21.961Z,49.10
2023-03-02T15:23:49.690Z,49.22
2023-03-02T15:26:21.654Z,50.40
2023-03-02T15:28:52.069Z,51.41
2023-03-02T15:31:19.351Z,51.37
2023-03-02T15:33:46.620Z,52.68
2023-03-02T15:36:14.163Z,53.87
2023-03-02T15:38:42.325Z,55.78
2023-03-02T15:41:13.671Z,55.67
2023-03-02T15:43:45.373Z,57.60
2023-03-02T15:46:12.636Z,59.52
2023-03-02T15:48:40.052Z,59.86
2023-03-02T15:51:07.882Z,60.64
2023-03-02T15:53:38.133Z,61.31
2023-03-02T15:56:07.149Z,62.71
2023-03-02T15:58:35.001Z,63.26
2023-03-02T16:01:11.504Z,62.70
2023-03-02T16:03:45.613Z,65.00
2023-03-02T16:06:13.452Z,66.34
2023-03-02T16:08:41.132Z,66.97
2023-03-02T16:11:13.001Z,67.49
2023-03-02T16:13:40.297Z,68.98
2023-03-02T16:16:10.685Z,68.59
2023-03-02T16:18:42.511Z,70.12
2023-03-02T16:21:13.349Z,71.63
2023-03-02T16:23:40.655Z,73.13
2023-03-02T16:26:09.069Z,73.29
2023-03-02T16:28:37.384Z,74.12
2023-03-02T16:31:07.967Z,74.30
2023-03-02T16:33:35.923Z,73.68
2023-03-02T16:36:03.383Z,75.62
2023-03-02T16:38:30.784Z,76.34
2023-03-02T16:40:58.093Z,76.09
2023-03-02T16:43:25.338Z,76.67
2023-03-02T16:45:52.834Z,77.48
2023-03-02T16:48:22.670Z,76.80
2023-03-02T16:50:57.391Z,79.14
2023-03-02T16:53:24.687Z,79.11
2023-03-02T16:55:52.060Z,79.44
2023-03-02T16:58:19.439Z,79.91
2023-03-02T17:00:46.737Z,80.73
2023-03-02T17:03:14.054Z,81.50
2023-03-02T17:05:44.576Z,81.35
2023-03-02T17:08:13.177Z,82.04
2023-03-02T17:10:44.927Z,82.64
2023-03-02T17:13:15.387Z,82.78
2023-03-02T17:15:42.770Z,83.95
2023-03-02T17:18:14.698Z,84.35
2023-03-02T17:20:42.666Z,84.53
2023-03-02T17:23:12.448Z,84.28
2023-03-02T17:25:40.375Z,84.14
2023-03-02T17:28:07.754Z,83.68
2023-03-02T17:30:35.077Z,84.69
2023-03-02T17:33:02.453Z,83.63
2023-03-02T17:35:30.168Z,82.75
2023-03-02T17:37:58.401Z,81.39
2023-03-02T17:40:28.342Z,78.88
2023-03-02T17:42:57.750Z,76.85
2023-03-02T17:45:26.465Z,74.98
2023-03-02T17:47:55.739Z,74.61
2023-03-02T17:50:23.121Z,73.45
2023-03-02T17:52:50.743Z,73.61
2023-03-02T17:55:18.431Z,75.08
2023-03-02T17:57:46.000Z,74.59
2023-03-02T18:00:15.504Z,74.96
2023-03-02T18:02:43.046Z,74.63
2023-03-02T18:05:10.564Z,74.51
2023-03-02T18:07:38.076Z,74.02
2023-03-02T18:10:06.597Z,74.59
2023-03-02T18:12:35.178Z,74.11
2023-03-02T18:15:02.482Z,73.29
2023-03-02T18:17:33.995Z,74.62
2023-03-02T18:20:01.215Z,77.08
2023-03-02T18:22:28.433Z,76.73
2023-03-02T18:24:57.098Z,76.69
2023-03-02T18:27:25.954Z,75.93
2023-03-02T18:29:53.222Z,75.88
2023-03-02T18:32:20.580Z,74.55
2023-03-02T18:34:48.067Z,73.79
2023-03-02T18:37:15.618Z,75.20
2023-03-02T18:39:43.601Z,76.57
2023-03-02T18:42:12.618Z,76.96
2023-03-02T18:44:40.095Z,77.89
2023-03-02T18:47:08.650Z,78.63
2023-03-02T18:49:38.338Z,79.11
2023-03-02T18:52:06.899Z,80.12
2023-03-02T18:54:34.724Z,81.37
2023-03-02T18:57:02.488Z,83.26
2023-03-02T18:59:29.943Z,84.30
2023-03-02T19:01:57.580Z,84.61
2023-03-02T19:04:26.775Z,85.36
2023-03-02T19:06:55.624Z,85.88
2023-03-02T19:09:23.312Z,85.80
2023-03-02T19:11:54.846Z,86.55
2023-03-02T19:14:22.297Z,87.00
2023-03-02T19:16:49.779Z,87.03
2023-03-02T19:19:17.074Z,87.09
2023-03-02T19:21:44.332Z,87.23
2023-03-02T19:24:11.635Z,87.58
2023-03-02T19:26:39.650Z,89.00
2023-03-02T19:29:07.280Z,88.69
2023-03-02T19:31:38.306Z,89.46
2023-03-02T19:34:05.620Z,89.38
2023-03-02T19:36:32.912Z,89.05
2023-03-02T19:39:00.173Z,89.43
2023-03-02T19:41:29.494Z,89.92
2023-03-02T19:43:57.090Z,90.09
2023-03-02T19:46:24.344Z,89.95
2023-03-02T19:48:51.566Z,89.93
2023-03-02T19:51:19.798Z,89.84
2023-03-02T19:53:47.231Z,90.19
2023-03-02T19:56:15.597Z,90.38
2023-03-02T19:58:53.632Z,90.94
2023-03-02T20:01:21.985Z,90.93
2023-03-02T20:03:51.619Z,92.05
2023-03-02T20:06:20.050Z,92.90
2023-03-02T20:08:48.104Z,93.86
2023-03-02T20:11:17.240Z,94.48
2023-03-02T20:13:45.370Z,95.48
2023-03-02T20:16:13.021Z,96.06
2023-03-02T20:18:43.212Z,96.02
2023-03-02T20:21:10.470Z,96.04
2023-03-02T20:23:37.869Z,96.88
2023-03-02T20:26:05.370Z,97.93
2023-03-02T20:28:33.141Z,98.07
2023-03-02T20:31:04.551Z,98.50
2023-03-02T20:33:34.199Z,98.39
2023-03-02T20:36:07.588Z,98.36
2023-03-02T20:38:39.646Z,98.10
2023-03-02T20:41:07.064Z,98.47
2023-03-02T20:43:35.921Z,98.08
2023-03-02T20:46:03.813Z,97.25
2023-03-02T20:48:31.615Z,97.49
2023-03-02T20:50:59.572Z,97.91
2023-03-02T20:53:26.928Z,98.56
2023-03-02T20:55:54.300Z,99.25
2023-03-02T20:58:21.616Z,100.00
2023-03-02T21:00:48.877Z,100.00
2023-03-02T21:03:16.245Z,100.00
2023-03-02T21:05:44.708Z,100.00
2023-03-02T21:08:14.888Z,100.00
2023-03-02T21:10:42.538Z,100.00
2023-03-02T21:13:11.902Z,100.00
2023-03-02T21:15:41.086Z,100.00
2023-03-02T21:18:08.400Z,100.00
2023-03-02T21:20:36.914Z,100.00
2023-03-02T21:23:04.578Z,100.00
2023-03-02T21:25:31.989Z,100.00
2023-03-02T21:27:59.521Z,100.00
2023-03-02T21:30:29.333Z,100.00
2023-03-02T21:32:56.955Z,99.81
2023-03-02T21:35:24.490Z,99.53
2023-03-02T21:37:54.636Z,99.27
2023-03-02T21:40:26.453Z,98.97
2023-03-02T21:42:54.234Z,98.61
2023-03-02T21:45:22.833Z,99.13
2023-03-02T21:47:50.215Z,99.93
2023-03-02T21:50:28.544Z,100.00
2023-03-02T21:52:56.219Z,100.00
2023-03-02T21:55:23.471Z,100.00
2023-03-02T21:57:51.141Z,100.00
2023-03-02T22:00:29.712Z,100.00
2023-03-02T22:02:56.911Z,100.00
2023-03-02T22:05:25.803Z,100.00
2023-03-02T22:07:54.093Z,100.00
2023-03-02T22:10:27.003Z,100.00
2023-03-02T22:13:27.316Z,100.00
2023-03-02T22:16:26.172Z,100.00
2023-03-02T22:18:58.287Z,100.00
2023-03-02T22:21:38.300Z,100.00
2023-03-02T22:24:09.415Z,100.00
2023-03-02T22:27:00.140Z,100.00
2023-03-02T22:29:44.058Z,100.00
2023-03-02T22:32:18.267Z,100.00
2023-03-02T22:34:48.396Z,100.00
2023-03-02T22:37:21.093Z,100.00
2023-03-02T22:39:48.782Z,100.00
2023-03-02T22:42:17.997Z,100.00
2023-03-02T22:45:12.957Z,100.00
2023-03-02T22:47:42.759Z,100.00
2023-03-02T22:50:23.245Z,100.00
2023-03-02T22:52:52.343Z,100.00
2023-03-02T22:55:42.383Z,100.00
2023-03-02T22:58:42.587Z,100.00
2023-03-02T23:01:22.122Z,100.00
2023-03-02T23:04:13.561Z,100.00
2023-03-02T23:06:42.407Z,100.00
2023-03-02T23:09:09.705Z,100.00
2023-03-02T23:11:38.920Z,100.00
2023-03-02T23:14:19.114Z,100.00
2023-03-02T23:16:49.354Z,100.00
2023-03-02T23:19:16.660Z,100.00
2023-03-02T23:21:48.201Z,100.00
2023-03-02T23:24:17.746Z,100.00
2023-03-02T23:26:45.291Z,100.00
2023-03-02T23:29:32.418Z,99.68
2023-03-02T23:32:00.168Z,99.58
2023-03-02T23:34:31.522Z,100.00
2023-03-02T23:36:59.359Z,100.00
2023-03-02T23:39:27.838Z,100.00
2023-03-02T23:41:55.162Z,100.00
2023-03-02T23:44:22.477Z,100.00
2023-03-02T23:46:53.568Z,100.00
2023-03-02T23:49:21.328Z,100.00
2023-03-02T23:51:48.943Z,100.00
2023-03-02T23:54:16.210Z,100.00
2023-03-02T23:56:43.741Z,100.00
2023-03-02T23:59:11.049Z,100.00
